Time;durP1;ratioP1;P1;durP2;ratioP2;P2;SDS_P1;SDS_P2;PMS_P1;PMS_P2;Temp;Humidity;BMP_temperature;BMP_pressure;BME280_temperature;BME280_humidity;BME280_pressure;Samples;Min_cycle;Max_cycle;Signal;HPM_P1;HPM_P2
2021/12/25 00:00:36;;;;;;;3.20;0.90;;;-1.90;99.90;;;;;;5067965;28;20224;-40
2021/12/25 00:03:03;;;;;;;1.73;0.50;;;-2.00;99.90;;;;;;5047859;28;20218;-40
2021/12/25 00:05:30;;;;;;;0.83;0.40;;;-1.90;99.90;;;;;;5060120;28;20842;-40
2021/12/25 00:07:57;;;;;;;1.93;0.87;;;-2.00;99.90;;;;;;5067698;28;20202;-40
2021/12/25 00:10:24;;;;;;;0.57;0.50;;;-2.00;99.90;;;;;;5075176;28;20211;-40
2021/12/25 00:12:53;;;;;;;0.67;0.47;;;-2.10;99.90;;;;;;5057018;28;20217;-40
2021/12/25 00:15:20;;;;;;;0.83;0.50;;;-2.10;99.90;;;;;;5068322;28;20238;-40
2021/12/25 00:17:49;;;;;;;1.33;0.60;;;-2.00;99.90;;;;;;5061685;28;20597;-40
2021/12/25 00:20:17;;;;;;;1.07;0.43;;;-2.10;99.90;;;;;;5081397;28;20193;-40
2021/12/25 00:22:44;;;;;;;0.30;0.30;;;-2.10;99.90;;;;;;5076894;28;20694;-40
2021/12/25 00:25:12;;;;;;;1.00;0.37;;;-2.10;99.90;;;;;;5076334;28;20324;-40
2021/12/25 00:27:54;;;;;;;0.83;0.80;;;-2.20;99.90;;;;;;5060902;28;20298;-40
2021/12/25 00:30:29;;;;;;;1.73;1.20;;;-2.30;99.90;;;;;;5073108;28;20298;-40
2021/12/25 00:33:02;;;;;;;2.50;2.03;;;-2.30;99.90;;;;;;5054352;28;20222;-40
2021/12/25 00:35:29;;;;;;;2.93;1.00;;;-2.40;99.90;;;;;;5074255;28;20253;-40
2021/12/25 00:37:56;;;;;;;1.10;1.00;;;-2.40;99.90;;;;;;5068193;28;20216;-40
2021/12/25 00:40:23;;;;;;;0.60;0.60;;;-2.40;99.90;;;;;;5079999;28;20204;-40
2021/12/25 00:42:50;;;;;;;2.13;1.70;;;-2.50;99.90;;;;;;5068985;28;20214;-40
2021/12/25 00:45:17;;;;;;;1.83;0.90;;;-2.40;99.90;;;;;;5082441;27;20459;-40
2021/12/25 00:47:44;;;;;;;3.50;1.90;;;-2.60;99.90;;;;;;5040185;28;20210;-40
2021/12/25 00:50:13;;;;;;;4.77;2.43;;;-2.60;99.90;;;;;;5071989;28;20205;-40
2021/12/25 00:52:40;;;;;;;5.67;3.40;;;-2.60;99.90;;;;;;5075543;28;20205;-40
2021/12/25 00:55:08;;;;;;;5.73;3.70;;;-2.60;99.90;;;;;;5080572;28;20230;-39
2021/12/25 00:57:37;;;;;;;8.63;4.40;;;-2.50;99.90;;;;;;5068903;28;20213;-40
2021/12/25 01:00:09;;;;;;;3.67;2.53;;;-2.50;99.90;;;;;;5080930;28;20199;-40
2021/12/25 01:02:38;;;;;;;1.30;1.00;;;-2.60;99.90;;;;;;5071766;28;20305;-40
2021/12/25 01:05:06;;;;;;;1.53;0.83;;;-2.70;99.90;;;;;;5048902;28;20242;-39
2021/12/25 01:07:35;;;;;;;0.93;0.67;;;-2.60;99.90;;;;;;5071711;28;20206;-40
2021/12/25 01:10:07;;;;;;;0.97;0.90;;;-2.60;99.90;;;;;;5076600;28;20218;-40
2021/12/25 01:12:47;;;;;;;1.00;0.40;;;-2.70;99.90;;;;;;5078171;28;20205;-40
2021/12/25 01:15:16;;;;;;;3.10;0.40;;;-2.70;99.90;;;;;;5066452;28;20236;-39
2021/12/25 01:21:01;;;;;;;1.70;0.80;;;-2.80;99.90;;;;;;5053676;28;20297;-40
2021/12/25 01:23:53;;;;;;;0.83;0.60;;;-2.80;99.90;;;;;;5070291;28;20286;-45
2021/12/25 01:29:22;;;;;;;0.90;0.50;;;-2.80;99.90;;;;;;5069538;28;20215;-44
2021/12/25 01:32:08;;;;;;;0.60;0.40;;;-2.80;99.90;;;;;;5065849;28;20203;-45
2021/12/25 01:37:26;;;;;;;3.00;0.57;;;-2.80;99.90;;;;;;5078687;28;20245;-44
2021/12/25 01:40:09;;;;;;;2.00;0.43;;;-2.80;99.90;;;;;;5069280;28;20810;-45
2021/12/25 01:48:05;;;;;;;0.80;0.50;;;-2.80;99.90;;;;;;5082810;28;20205;-45
2021/12/25 01:50:33;;;;;;;2.57;0.70;;;-2.80;99.90;;;;;;5063765;28;20217;-45
2021/12/25 01:53:00;;;;;;;0.30;0.30;;;-2.80;99.90;;;;;;5084040;28;20223;-45
2021/12/25 01:55:30;;;;;;;2.40;0.70;;;-2.80;99.90;;;;;;5071118;27;20227;-45
2021/12/25 01:58:00;;;;;;;3.80;1.10;;;-2.70;99.90;;;;;;5068318;28;20207;-45
2021/12/25 02:00:32;;;;;;;1.67;0.90;;;-2.80;99.90;;;;;;5064690;28;20775;-45
2021/12/25 02:03:00;;;;;;;4.63;1.03;;;-2.70;99.90;;;;;;5078049;28;20205;-45
2021/12/25 02:05:27;;;;;;;1.93;0.80;;;-2.70;99.90;;;;;;5060289;28;20230;-45
2021/12/25 02:07:54;;;;;;;1.13;0.60;;;-2.80;99.90;;;;;;5083003;28;20206;-45
2021/12/25 02:10:21;;;;;;;1.10;0.87;;;-2.80;99.90;;;;;;5068818;27;20655;-45
2021/12/25 02:12:49;;;;;;;0.67;0.50;;;-3.00;99.90;;;;;;5075746;28;20214;-45
2021/12/25 02:15:20;;;;;;;2.17;0.63;;;-3.00;99.90;;;;;;5063073;27;20702;-45
2021/12/25 02:18:03;;;;;;;9.53;0.70;;;-3.00;99.90;;;;;;5077722;28;20210;-45
2021/12/25 02:20:37;;;;;;;0.43;0.40;;;-3.00;99.90;;;;;;5082538;28;20202;-45
2021/12/25 02:23:11;;;;;;;0.53;0.53;;;-3.00;99.90;;;;;;5058742;28;20209;-45
2021/12/25 02:25:38;;;;;;;0.90;0.63;;;-3.20;99.90;;;;;;5070293;28;20644;-45
2021/12/25 02:28:06;;;;;;;2.73;0.57;;;-3.20;99.90;;;;;;5073627;28;20210;-44
2021/12/25 02:30:33;;;;;;;0.30;0.30;;;-3.20;99.90;;;;;;5059138;28;20214;-45
2021/12/25 02:33:00;;;;;;;1.00;0.70;;;-3.30;99.90;;;;;;5085879;27;20570;-45
2021/12/25 02:35:28;;;;;;;3.70;0.57;;;-3.30;99.90;;;;;;5077275;27;20224;-45
2021/12/25 02:37:56;;;;;;;2.90;1.03;;;-3.40;99.90;;;;;;5063164;28;20204;-44
2021/12/25 02:40:23;;;;;;;0.90;0.50;;;-3.40;99.90;;;;;;5083541;28;20204;-44
2021/12/25 02:42:50;;;;;;;1.03;0.63;;;-3.40;99.90;;;;;;5072057;28;20205;-44
2021/12/25 02:45:19;;;;;;;0.97;0.70;;;-3.50;99.90;;;;;;5070237;28;20224;-45
2021/12/25 02:47:47;;;;;;;0.87;0.67;;;-3.30;99.90;;;;;;5067860;28;20222;-45
2021/12/25 02:50:21;;;;;;;1.80;0.67;;;-3.50;99.90;;;;;;5079576;28;20314;-44
2021/12/25 02:52:49;;;;;;;1.13;0.77;;;-3.50;99.90;;;;;;5055604;27;20215;-44
2021/12/25 02:55:17;;;;;;;1.97;0.47;;;-3.50;99.90;;;;;;5078355;28;20244;-44
2021/12/25 02:57:49;;;;;;;0.60;0.60;;;-3.50;99.90;;;;;;5067874;28;20203;-45
2021/12/25 03:00:16;;;;;;;0.47;0.43;;;-3.40;99.90;;;;;;5076724;28;20207;-44
2021/12/25 03:02:43;;;;;;;0.40;0.40;;;-3.50;99.90;;;;;;5054029;28;20200;-44
2021/12/25 03:05:10;;;;;;;0.77;0.40;;;-3.60;99.90;;;;;;5078009;28;20606;-45
2021/12/25 03:07:37;;;;;;;0.90;0.57;;;-3.60;99.90;;;;;;5047775;28;20227;-45
2021/12/25 03:10:06;;;;;;;1.37;0.50;;;-3.60;99.90;;;;;;5076633;28;20219;-45
2021/12/25 03:12:45;;;;;;;2.17;0.83;;;-3.60;99.90;;;;;;5066348;28;20204;-45
2021/12/25 03:15:16;;;;;;;1.47;0.53;;;-3.60;99.90;;;;;;5071402;28;20253;-44
2021/12/25 03:17:43;;;;;;;3.67;0.83;;;-3.60;99.90;;;;;;5056926;28;20215;-45
2021/12/25 03:20:12;;;;;;;1.80;0.70;;;-3.60;99.90;;;;;;5066787;28;20196;-44
2021/12/25 03:22:40;;;;;;;4.63;0.80;;;-3.70;99.90;;;;;;5059352;28;20211;-44
2021/12/25 03:25:09;;;;;;;4.90;0.47;;;-3.60;99.90;;;;;;5067455;28;20215;-45
2021/12/25 03:27:38;;;;;;;1.80;0.63;;;-3.60;99.90;;;;;;5071679;28;20221;-45
2021/12/25 03:30:07;;;;;;;2.67;0.60;;;-3.50;99.90;;;;;;5068682;28;21026;-45
2021/12/25 03:32:34;;;;;;;1.57;0.80;;;-3.50;99.90;;;;;;5064506;28;20851;-45
2021/12/25 03:38:23;;;;;;;0.40;0.40;;;-3.60;99.90;;;;;;5056970;28;20599;-45
2021/12/25 03:40:52;;;;;;;2.43;0.70;;;-3.60;99.90;;;;;;5066942;28;21117;-44
2021/12/25 03:43:21;;;;;;;1.00;0.63;;;-3.60;99.90;;;;;;5063606;28;20210;-45
2021/12/25 03:45:48;;;;;;;0.90;0.40;;;-3.50;99.90;;;;;;5071873;27;20230;-45
2021/12/25 03:48:30;;;;;;;0.73;0.60;;;-3.60;99.90;;;;;;5055377;28;20219;-44
2021/12/25 03:59:13;;;;;;;0.47;0.47;;;-3.70;99.90;;;;;;5070136;28;20210;-44
2021/12/25 04:01:47;;;;;;;0.47;0.47;;;-3.70;99.90;;;;;;5070343;28;20239;-44
2021/12/25 04:04:19;;;;;;;2.03;0.50;;;-3.80;99.90;;;;;;5067208;28;20348;-44
2021/12/25 04:06:53;;;;;;;1.07;0.67;;;-4.00;99.90;;;;;;5079479;28;20357;-44
2021/12/25 04:09:25;;;;;;;1.57;0.70;;;-4.00;99.90;;;;;;5056313;28;20300;-44
2021/12/25 04:11:53;;;;;;;1.00;0.60;;;-4.00;99.90;;;;;;5070709;28;20916;-44
2021/12/25 04:14:22;;;;;;;1.97;0.70;;;-4.00;99.90;;;;;;5057602;28;20207;-45
2021/12/25 04:16:49;;;;;;;0.60;0.60;;;-4.00;99.90;;;;;;5078327;28;20191;-44
2021/12/25 04:19:16;;;;;;;0.70;0.60;;;-4.00;99.90;;;;;;5067251;28;20207;-45
2021/12/25 04:21:51;;;;;;;2.30;0.80;;;-3.90;99.90;;;;;;5077174;28;20210;-44
2021/12/25 04:24:18;;;;;;;4.90;0.90;;;-3.90;99.90;;;;;;5054936;28;20743;-44
2021/12/25 04:26:47;;;;;;;0.90;0.70;;;-3.90;99.90;;;;;;5069706;28;20311;-44
2021/12/25 04:29:35;;;;;;;1.53;0.60;;;-4.00;99.90;;;;;;5069512;28;20275;-44
2021/12/25 05:02:48;;;;;;;0.50;0.50;;;-4.10;99.90;;;;;;5054492;28;20235;-44
2021/12/25 05:05:19;;;;;;;1.10;0.60;;;-4.00;99.90;;;;;;5069974;27;20242;-44
2021/12/25 05:07:46;;;;;;;0.90;0.67;;;-4.00;99.90;;;;;;5075165;28;20227;-45
2021/12/25 05:10:13;;;;;;;0.30;0.30;;;-4.10;99.90;;;;;;5063886;28;20208;-44
2021/12/25 05:12:40;;;;;;;2.00;0.97;;;-4.00;99.90;;;;;;5081674;28;20209;-44
2021/12/25 05:15:07;;;;;;;1.33;0.80;;;-4.10;99.90;;;;;;5072738;28;20242;-44
2021/12/25 05:17:36;;;;;;;1.67;0.63;;;-4.10;99.90;;;;;;5076411;28;20299;-44
2021/12/25 05:20:04;;;;;;;3.37;0.70;;;-4.10;99.90;;;;;;5068529;28;20229;-44
2021/12/25 05:22:32;;;;;;;0.93;0.70;;;-4.00;99.90;;;;;;5085902;28;20195;-44
2021/12/25 05:24:59;;;;;;;2.53;0.90;;;-4.00;99.90;;;;;;5054184;28;20696;-44
2021/12/25 05:27:26;;;;;;;0.57;0.50;;;-4.00;99.90;;;;;;5071738;28;20956;-44
2021/12/25 05:29:53;;;;;;;0.77;0.43;;;-4.10;99.90;;;;;;5067180;28;20213;-44
2021/12/25 05:32:20;;;;;;;4.63;0.97;;;-4.00;99.90;;;;;;5073111;28;20214;-44
2021/12/25 05:34:47;;;;;;;0.60;0.60;;;-4.00;99.90;;;;;;5075620;28;20221;-44
2021/12/25 05:37:15;;;;;;;0.40;0.40;;;-4.10;99.90;;;;;;5069214;27;20210;-44
2021/12/25 05:39:50;;;;;;;1.23;0.90;;;-4.20;99.90;;;;;;5063169;28;20233;-44
2021/12/25 05:42:18;;;;;;;3.60;1.57;;;-4.30;99.90;;;;;;5078290;28;20232;-44
2021/12/25 05:44:44;;;;;;;2.57;1.30;;;-4.30;99.90;;;;;;5062240;28;20235;-44
2021/12/25 05:47:12;;;;;;;3.03;1.40;;;-4.30;99.90;;;;;;5066136;28;20215;-44
2021/12/25 05:49:38;;;;;;;4.97;1.70;;;-4.30;99.90;;;;;;5068656;28;20203;-44
2021/12/25 05:52:07;;;;;;;5.00;1.07;;;-4.30;99.90;;;;;;5067867;27;20208;-44
2021/12/25 05:54:34;;;;;;;2.07;0.90;;;-4.30;99.90;;;;;;5078033;28;20207;-44
2021/12/25 05:57:03;;;;;;;1.13;0.70;;;-4.40;99.90;;;;;;5058757;27;20591;-45
2021/12/25 05:59:30;;;;;;;0.63;0.53;;;-4.40;99.90;;;;;;5079738;28;21252;-45
2021/12/25 06:01:57;;;;;;;2.33;0.90;;;-4.40;99.90;;;;;;5068185;28;20214;-44
2021/12/25 06:04:23;;;;;;;1.43;0.70;;;-4.50;99.90;;;;;;5075536;28;20204;-44
2021/12/25 06:06:50;;;;;;;1.93;0.50;;;-4.60;99.90;;;;;;5069810;28;20208;-44
2021/12/25 06:09:18;;;;;;;1.87;1.07;;;-4.60;99.90;;;;;;5085894;28;20609;-44
2021/12/25 06:11:46;;;;;;;1.60;1.03;;;-4.70;99.90;;;;;;5059735;28;20203;-45
2021/12/25 06:14:19;;;;;;;1.47;0.80;;;-4.60;99.90;;;;;;5073633;28;20682;-44
2021/12/25 06:16:46;;;;;;;0.83;0.70;;;-4.70;99.90;;;;;;5070559;27;20349;-44
2021/12/25 06:19:13;;;;;;;3.47;0.97;;;-4.70;99.90;;;;;;5068895;27;20196;-44
2021/12/25 06:21:40;;;;;;;1.40;0.83;;;-4.70;99.90;;;;;;5078294;27;20192;-44
2021/12/25 06:24:07;;;;;;;2.03;1.00;;;-4.70;99.90;;;;;;5072359;28;20211;-44
2021/12/25 06:26:35;;;;;;;3.63;1.00;;;-4.80;99.90;;;;;;5062111;28;20223;-44
2021/12/25 06:29:03;;;;;;;4.23;1.20;;;-4.70;99.90;;;;;;5083396;28;20230;-44
2021/12/25 06:31:31;;;;;;;3.70;1.27;;;-4.60;99.90;;;;;;5067874;28;20853;-44
2021/12/25 06:33:58;;;;;;;1.70;0.73;;;-4.60;99.90;;;;;;5069580;28;20199;-44
2021/12/25 06:36:25;;;;;;;0.83;0.80;;;-4.50;99.90;;;;;;5076813;27;20230;-44
2021/12/25 06:38:52;;;;;;;0.73;0.73;;;-4.50;99.90;;;;;;5068526;28;23753;-44
2021/12/25 06:41:19;;;;;;;7.97;1.27;;;-4.40;99.90;;;;;;5080322;28;20200;-44
2021/12/25 06:43:46;;;;;;;0.83;0.83;;;-4.50;99.90;;;;;;5054137;28;20218;-44
2021/12/25 06:46:13;;;;;;;3.17;1.00;;;-4.50;99.90;;;;;;5078809;28;20230;-44
2021/12/25 06:48:42;;;;;;;2.00;0.80;;;-4.50;99.90;;;;;;5069047;28;20220;-44
2021/12/25 06:51:09;;;;;;;1.00;0.73;;;-4.50;99.90;;;;;;5065295;28;20211;-44
2021/12/25 06:53:37;;;;;;;1.67;1.30;;;-4.50;99.90;;;;;;5068685;28;20207;-43
2021/12/25 06:56:05;;;;;;;2.07;1.30;;;-4.40;99.90;;;;;;5074080;28;20236;-43
2021/12/25 06:58:31;;;;;;;5.20;1.07;;;-4.40;99.90;;;;;;5058315;28;20516;-43
2021/12/25 07:00:58;;;;;;;4.87;1.30;;;-4.40;99.90;;;;;;5057233;28;20203;-43
2021/12/25 07:03:25;;;;;;;1.03;0.93;;;-4.40;99.90;;;;;;5049526;28;20344;-43
2021/12/25 07:05:53;;;;;;;2.17;0.93;;;-4.40;99.90;;;;;;5054524;28;20318;-38
2021/12/25 07:08:20;;;;;;;1.57;0.80;;;-4.40;99.90;;;;;;5048019;27;20250;-38
2021/12/25 07:10:47;;;;;;;1.67;0.73;;;-4.50;99.90;;;;;;5056210;28;20217;-38
2021/12/25 07:13:18;;;;;;;3.87;1.10;;;-4.50;99.90;;;;;;5046246;28;20709;-38
2021/12/25 07:15:45;;;;;;;1.83;1.03;;;-4.50;99.90;;;;;;5073869;28;21071;-38
2021/12/25 07:18:12;;;;;;;2.63;1.40;;;-4.40;99.90;;;;;;5051854;28;20199;-38
2021/12/25 07:20:39;;;;;;;1.43;1.07;;;-4.40;99.90;;;;;;5074936;28;20772;-38
2021/12/25 07:23:08;;;;;;;3.07;1.13;;;-4.50;99.90;;;;;;5042750;28;20199;-38
2021/12/25 07:25:35;;;;;;;1.50;1.00;;;-4.50;99.90;;;;;;5055975;28;20246;-39
2021/12/25 07:28:02;;;;;;;2.33;1.10;;;-4.50;99.90;;;;;;5066050;28;20298;-40
2021/12/25 07:30:28;;;;;;;3.93;1.30;;;-4.60;99.90;;;;;;5037179;28;20218;-38
2021/12/25 07:32:55;;;;;;;1.53;1.03;;;-4.60;99.90;;;;;;5065037;28;20204;-38
2021/12/25 07:35:22;;;;;;;2.47;0.90;;;-4.50;99.90;;;;;;5047668;28;20223;-38
2021/12/25 07:37:49;;;;;;;2.30;1.03;;;-4.50;99.90;;;;;;5039282;27;20333;-38
2021/12/25 07:40:17;;;;;;;1.00;0.90;;;-4.50;99.90;;;;;;5049573;28;20200;-38
2021/12/25 07:42:44;;;;;;;1.60;1.07;;;-4.40;99.90;;;;;;5066801;28;20211;-39
2021/12/25 07:45:12;;;;;;;1.43;1.00;;;-4.50;99.90;;;;;;5035832;28;20226;-38
2021/12/25 07:47:46;;;;;;;3.13;1.10;;;-4.50;99.90;;;;;;5066376;28;20755;-39
2021/12/25 07:50:14;;;;;;;2.93;1.23;;;-4.50;99.90;;;;;;5041113;28;20311;-39
2021/12/25 07:52:41;;;;;;;0.87;0.63;;;-4.50;99.90;;;;;;5056025;28;20212;-38
2021/12/25 07:55:09;;;;;;;0.67;0.57;;;-4.40;99.90;;;;;;5042354;28;20227;-39
2021/12/25 07:57:38;;;;;;;4.47;1.27;;;-4.40;99.90;;;;;;5067703;28;20690;-38
2021/12/25 08:00:09;;;;;;;3.50;1.03;;;-4.30;99.90;;;;;;5043449;28;20850;-38
2021/12/25 08:02:36;;;;;;;0.60;0.60;;;-4.30;99.90;;;;;;5055803;28;20203;-43
2021/12/25 08:05:04;;;;;;;0.80;0.80;;;-4.30;99.90;;;;;;5049504;28;20234;-38
2021/12/25 08:07:30;;;;;;;1.40;1.03;;;-4.30;99.90;;;;;;5060465;28;20223;-39
2021/12/25 08:10:11;;;;;;;1.37;1.13;;;-4.30;99.90;;;;;;5042334;28;20208;-39
2021/12/25 08:12:39;;;;;;;3.50;1.63;;;-4.30;99.90;;;;;;5064708;28;20936;-39
2021/12/25 08:15:07;;;;;;;2.40;1.13;;;-4.40;99.90;;;;;;5058813;28;20230;-39
2021/12/25 08:17:34;;;;;;;6.30;3.00;;;-4.40;99.90;;;;;;5074578;28;23278;-39
2021/12/25 08:20:01;;;;;;;8.10;5.40;;;-4.40;99.90;;;;;;5027715;28;20230;-39
2021/12/25 08:22:28;;;;;;;4.87;3.50;;;-4.50;99.90;;;;;;5051008;28;20242;-39
2021/12/25 08:24:55;;;;;;;4.33;3.80;;;-4.50;99.90;;;;;;5046606;28;20232;-39
2021/12/25 08:27:22;;;;;;;3.57;3.27;;;-4.60;99.90;;;;;;5027554;28;21665;-39
2021/12/25 08:29:50;;;;;;;9.43;5.00;;;-4.60;99.90;;;;;;5051141;28;20264;-39
2021/12/25 08:32:17;;;;;;;4.27;2.00;;;-4.50;99.90;;;;;;5036532;28;20229;-39
2021/12/25 08:34:44;;;;;;;2.73;1.10;;;-4.40;99.90;;;;;;5066465;28;20222;-39
2021/12/25 08:37:12;;;;;;;3.37;1.30;;;-4.40;99.90;;;;;;5050986;28;20209;-39
2021/12/25 08:39:40;;;;;;;2.77;1.37;;;-4.30;99.90;;;;;;5064735;28;20936;-40
2021/12/25 08:42:08;;;;;;;3.87;1.40;;;-4.30;99.90;;;;;;5020448;28;20211;-39
2021/12/25 08:44:41;;;;;;;4.40;1.40;;;-4.30;99.90;;;;;;5073073;28;20219;-39
2021/12/25 08:47:12;;;;;;;2.13;0.93;;;-4.30;99.90;;;;;;5057287;28;20199;-40
2021/12/25 08:49:41;;;;;;;0.87;0.80;;;-4.20;99.90;;;;;;5069381;28;20221;-39
2021/12/25 08:52:12;;;;;;;2.47;1.10;;;-4.20;99.90;;;;;;5054167;28;20208;-39
2021/12/25 08:54:43;;;;;;;3.53;0.97;;;-4.10;99.90;;;;;;5059364;28;21622;-39
2021/12/25 08:57:10;;;;;;;1.83;1.13;;;-4.10;99.90;;;;;;5029152;27;20887;-39
2021/12/25 08:59:39;;;;;;;3.60;1.13;;;-4.10;99.90;;;;;;5082257;28;20934;-39
2021/12/25 09:02:11;;;;;;;1.27;0.90;;;-4.10;99.90;;;;;;5049618;28;21031;-39
2021/12/25 09:04:39;;;;;;;4.13;1.30;;;-4.10;99.90;;;;;;5066200;27;20328;-39
2021/12/25 09:07:07;;;;;;;1.90;1.10;;;-4.00;99.90;;;;;;5061793;28;20718;-39
2021/12/25 09:09:35;;;;;;;1.93;0.70;;;-4.00;99.90;;;;;;5051738;28;20219;-45
2021/12/25 09:12:02;;;;;;;1.73;1.00;;;-3.90;99.90;;;;;;5067404;28;20923;-44
2021/12/25 09:14:29;;;;;;;2.30;1.30;;;-3.90;99.90;;;;;;5055793;28;20295;-44
2021/12/25 09:16:56;;;;;;;1.83;1.00;;;-3.90;99.90;;;;;;5060126;28;20293;-44
2021/12/25 09:19:24;;;;;;;2.90;1.50;;;-3.80;99.90;;;;;;5045390;28;20266;-39
2021/12/25 09:21:51;;;;;;;1.37;1.00;;;-3.70;99.90;;;;;;5052722;28;21115;-39
2021/12/25 09:24:19;;;;;;;2.27;1.17;;;-3.60;99.90;;;;;;5033278;28;21355;-39
2021/12/25 09:26:47;;;;;;;1.00;0.83;;;-3.50;99.90;;;;;;5065619;27;20212;-40
2021/12/25 09:29:13;;;;;;;2.67;1.13;;;-3.50;99.90;;;;;;5043461;27;20273;-40
2021/12/25 09:31:40;;;;;;;1.43;1.13;;;-3.50;99.90;;;;;;5060445;27;20204;-40
2021/12/25 09:34:07;;;;;;;1.33;1.00;;;-3.50;99.90;;;;;;5041285;28;20210;-37
2021/12/25 09:36:35;;;;;;;1.17;1.07;;;-3.50;99.90;;;;;;5070193;28;20234;-37
2021/12/25 09:39:04;;;;;;;4.53;1.30;;;-3.40;99.90;;;;;;5042399;28;20196;-37
2021/12/25 09:41:32;;;;;;;3.20;1.43;;;-3.30;99.90;;;;;;5056570;28;20208;-37
2021/12/25 09:44:00;;;;;;;2.37;1.40;;;-3.30;99.90;;;;;;5053630;27;20240;-37
2021/12/25 09:46:27;;;;;;;1.63;1.27;;;-3.20;99.90;;;;;;5064301;28;20311;-37
2021/12/25 09:48:54;;;;;;;1.60;1.13;;;-3.20;99.90;;;;;;5058086;28;20904;-37
2021/12/25 09:51:22;;;;;;;1.50;1.00;;;-3.20;99.90;;;;;;5054231;28;20213;-37
2021/12/25 09:53:59;;;;;;;3.10;1.40;;;-3.20;99.90;;;;;;5066518;28;20219;-37
2021/12/25 09:56:26;;;;;;;1.77;1.20;;;-3.10;99.90;;;;;;5052346;28;20232;-37
2021/12/25 09:58:53;;;;;;;1.67;1.30;;;-3.10;99.90;;;;;;5055756;28;21232;-37
2021/12/25 10:01:37;;;;;;;3.93;1.23;;;-3.00;99.90;;;;;;5048930;28;20704;-37
2021/12/25 10:04:05;;;;;;;7.20;1.70;;;-3.00;99.90;;;;;;5070172;28;20216;-37
2021/12/25 10:06:33;;;;;;;3.30;1.50;;;-3.00;99.90;;;;;;5052802;28;20991;-37
2021/12/25 10:09:12;;;;;;;5.00;1.20;;;-2.90;99.90;;;;;;5058233;28;20371;-37
2021/12/25 10:11:54;;;;;;;7.27;1.47;;;-2.90;99.90;;;;;;5055625;28;20209;-37
2021/12/25 10:14:21;;;;;;;2.27;1.10;;;-2.90;99.90;;;;;;5058738;28;20216;-37
2021/12/25 10:16:48;;;;;;;1.23;0.97;;;-2.90;99.90;;;;;;5054116;28;20217;-37
2021/12/25 10:19:17;;;;;;;1.83;0.67;;;-2.90;99.90;;;;;;5058397;28;23598;-37
2021/12/25 10:21:44;;;;;;;3.67;1.07;;;-2.80;99.90;;;;;;5045225;28;20574;-37
2021/12/25 10:24:17;;;;;;;4.13;1.30;;;-2.70;99.90;;;;;;5043848;28;21787;-37
2021/12/25 10:26:46;;;;;;;1.67;0.80;;;-2.70;99.90;;;;;;5048853;28;20221;-44
2021/12/25 10:29:19;;;;;;;1.33;1.20;;;-2.70;99.90;;;;;;5064614;28;20224;-40
2021/12/25 10:31:46;;;;;;;2.13;0.87;;;-2.70;99.90;;;;;;5038607;28;20210;-40
2021/12/25 10:34:14;;;;;;;8.67;1.30;;;-2.70;99.90;;;;;;5066517;28;20200;-40
2021/12/25 10:36:43;;;;;;;2.83;1.30;;;-2.60;99.90;;;;;;5034332;28;20217;-40
2021/12/25 10:39:13;;;;;;;1.97;1.20;;;-2.60;99.90;;;;;;5050574;28;21232;-40
2021/12/25 10:41:50;;;;;;;3.57;1.13;;;-2.50;99.90;;;;;;5071423;28;20322;-40
2021/12/25 10:44:19;;;;;;;1.80;0.90;;;-2.50;99.90;;;;;;5051800;28;20210;-40
2021/12/25 10:46:54;;;;;;;3.37;1.20;;;-2.40;99.90;;;;;;5048497;28;20214;-40
2021/12/25 10:49:23;;;;;;;1.03;0.90;;;-2.40;99.90;;;;;;5054724;28;20223;-40
2021/12/25 10:51:50;;;;;;;1.30;1.10;;;-2.30;99.90;;;;;;5049178;28;20214;-40
2021/12/25 10:54:19;;;;;;;3.87;1.23;;;-2.30;99.90;;;;;;5071076;28;20231;-40
2021/12/25 10:56:48;;;;;;;2.33;1.13;;;-2.20;99.90;;;;;;5061579;28;20325;-40
2021/12/25 10:59:17;;;;;;;2.47;1.37;;;-2.20;99.90;;;;;;5065515;28;20206;-40
2021/12/25 11:01:46;;;;;;;8.33;1.10;;;-2.10;99.90;;;;;;5054025;28;20209;-40
2021/12/25 11:04:30;;;;;;;3.03;1.17;;;-2.20;99.90;;;;;;5060814;28;20599;-40
2021/12/25 11:06:59;;;;;;;1.83;0.70;;;-2.10;99.90;;;;;;5055089;27;20299;-40
2021/12/25 11:09:27;;;;;;;6.13;1.20;;;-2.10;99.90;;;;;;5071343;28;20999;-40
2021/12/25 11:12:17;;;;;;;4.00;1.10;;;-2.10;99.90;;;;;;5066818;28;20244;-40
2021/12/25 11:14:44;;;;;;;1.33;0.80;;;-2.00;99.90;;;;;;5054703;27;20232;-41
2021/12/25 11:17:32;;;;;;;3.77;1.50;;;-2.00;99.90;;;;;;5052421;28;20199;-40
2021/12/25 11:20:01;;;;;;;3.50;1.07;;;-2.00;99.90;;;;;;5046075;28;20207;-40
2021/12/25 11:22:28;;;;;;;4.50;1.37;;;-1.90;99.90;;;;;;5046791;28;20219;-38
2021/12/25 11:24:58;;;;;;;1.60;0.97;;;-1.90;99.90;;;;;;5053338;28;20372;-38
2021/12/25 11:27:25;;;;;;;3.17;1.10;;;-1.80;99.90;;;;;;5048010;28;20219;-38
2021/12/25 11:29:53;;;;;;;2.43;1.00;;;-1.80;99.90;;;;;;5047134;28;20216;-38
2021/12/25 11:32:21;;;;;;;1.90;1.30;;;-1.80;99.90;;;;;;5049363;28;20693;-39
2021/12/25 11:34:50;;;;;;;2.83;1.03;;;-1.80;99.90;;;;;;5050464;28;20231;-40
2021/12/25 11:37:18;;;;;;;0.60;0.60;;;-1.80;99.90;;;;;;5056498;28;20207;-38
2021/12/25 11:39:51;;;;;;;4.10;0.90;;;-1.80;99.90;;;;;;5042977;28;20583;-39
2021/12/25 11:42:22;;;;;;;1.23;1.03;;;-1.80;99.90;;;;;;5062740;28;20688;-38
2021/12/25 11:44:54;;;;;;;4.77;1.67;;;-1.70;99.90;;;;;;5053570;28;20346;-38
2021/12/25 11:47:33;;;;;;;2.97;0.97;;;-1.80;99.90;;;;;;5071752;28;20741;-38
2021/12/25 11:50:02;;;;;;;1.33;0.80;;;-1.70;99.90;;;;;;5062539;28;20536;-39
2021/12/25 11:52:35;;;;;;;1.83;1.23;;;-1.70;99.90;;;;;;5038314;28;20720;-38
2021/12/25 11:55:31;;;;;;;3.57;1.20;;;-1.60;99.90;;;;;;5055032;28;20223;-39
2021/12/25 11:58:06;;;;;;;1.37;0.90;;;-1.70;99.90;;;;;;5065534;28;20227;-38
2021/12/25 12:00:43;;;;;;;1.73;1.10;;;-1.60;99.90;;;;;;5068194;28;20932;-38
2021/12/25 12:03:10;;;;;;;4.77;1.40;;;-1.60;99.90;;;;;;5061801;28;20210;-38
2021/12/25 12:05:38;;;;;;;2.47;1.10;;;-1.60;99.90;;;;;;5077962;28;20307;-38
2021/12/25 12:08:08;;;;;;;4.87;1.10;;;-1.50;99.90;;;;;;5050278;28;20207;-39
2021/12/25 12:10:55;;;;;;;3.63;1.30;;;-1.50;99.90;;;;;;5053352;28;20605;-38
2021/12/25 12:13:27;;;;;;;6.17;1.43;;;-1.50;99.90;;;;;;5072006;28;20267;-38
2021/12/25 12:15:57;;;;;;;1.93;1.30;;;-1.50;99.90;;;;;;5065727;28;20226;-39
2021/12/25 12:18:39;;;;;;;2.10;1.20;;;-1.50;99.90;;;;;;5070560;28;20291;-39
2021/12/25 12:21:33;;;;;;;1.70;1.30;;;-1.40;99.90;;;;;;5019108;28;20203;-38
2021/12/25 12:24:28;;;;;;;5.80;1.50;;;-1.40;99.90;;;;;;5054918;28;20207;-38
2021/12/25 12:26:55;;;;;;;5.80;1.27;;;-1.40;99.90;;;;;;5044427;28;27397;-39
2021/12/25 12:29:43;;;;;;;3.40;1.40;;;-1.40;99.90;;;;;;5079281;28;20215;-39
2021/12/25 12:32:33;;;;;;;4.23;1.53;;;-1.40;99.90;;;;;;5053281;28;20211;-38
2021/12/25 12:35:01;;;;;;;10.73;2.27;;;-1.40;99.90;;;;;;5048344;28;20227;-39
2021/12/25 12:37:30;;;;;;;1.37;1.20;;;-1.40;99.90;;;;;;5050561;28;20219;-38
2021/12/25 12:40:22;;;;;;;1.77;1.00;;;-1.40;99.90;;;;;;5052921;28;22390;-38
2021/12/25 12:42:52;;;;;;;3.43;2.57;;;-1.40;99.90;;;;;;5067230;28;20203;-39
2021/12/25 12:45:23;;;;;;;2.23;1.33;;;-0.50;99.90;;;;;;5064882;28;20302;-39
2021/12/25 12:48:16;;;;;;;2.20;1.27;;;-0.50;99.90;;;;;;5058232;28;20216;-38
2021/12/25 12:50:46;;;;;;;2.77;1.40;;;-0.60;99.90;;;;;;5046231;28;20227;-39
2021/12/25 12:53:13;;;;;;;4.20;1.73;;;-0.80;99.90;;;;;;5058586;28;20211;-38
2021/12/25 12:55:42;;;;;;;3.57;1.30;;;-0.90;99.90;;;;;;5050070;28;21057;-39
2021/12/25 12:58:14;;;;;;;2.77;1.17;;;-1.00;99.90;;;;;;5063897;28;20277;-38
2021/12/25 13:00:44;;;;;;;2.43;1.57;;;-1.00;99.90;;;;;;5058158;28;20211;-39
2021/12/25 13:03:11;;;;;;;2.73;1.27;;;-1.10;99.90;;;;;;5066603;28;20219;-38
2021/12/25 13:05:40;;;;;;;1.30;1.13;;;-1.10;99.90;;;;;;5065954;27;20234;-38
2021/12/25 13:08:15;;;;;;;3.20;1.37;;;-1.20;99.90;;;;;;5064680;28;20271;-38
2021/12/25 13:10:49;;;;;;;4.10;1.13;;;-1.20;99.90;;;;;;5073297;28;20230;-38
2021/12/25 13:13:19;;;;;;;6.07;1.37;;;-1.20;99.90;;;;;;5064885;28;20238;-38
2021/12/25 13:15:49;;;;;;;3.80;1.50;;;-1.20;99.90;;;;;;5073741;28;20239;-38
2021/12/25 13:18:26;;;;;;;4.20;1.30;;;-1.20;99.90;;;;;;5059503;28;20199;-38
2021/12/25 13:20:53;;;;;;;3.00;1.20;;;-1.20;99.90;;;;;;5075061;28;20199;-38
2021/12/25 13:23:23;;;;;;;3.03;1.40;;;-1.20;99.90;;;;;;5063178;28;20227;-38
2021/12/25 13:25:53;;;;;;;3.63;1.67;;;-1.20;99.90;;;;;;5073189;28;20223;-38
2021/12/25 13:28:22;;;;;;;1.83;1.03;;;-1.20;99.90;;;;;;5062963;28;20208;-39
2021/12/25 13:30:55;;;;;;;2.63;1.13;;;-1.20;99.90;;;;;;5074310;28;20779;-39
2021/12/25 13:33:24;;;;;;;2.37;1.30;;;-1.20;99.90;;;;;;5063022;28;20290;-39
2021/12/25 13:36:00;;;;;;;3.23;1.30;;;-1.20;99.90;;;;;;5075086;28;20671;-39
2021/12/25 13:38:27;;;;;;;6.30;1.10;;;-1.20;99.90;;;;;;5048064;28;20200;-39
2021/12/25 13:40:55;;;;;;;4.40;1.60;;;-1.10;99.90;;;;;;5075284;28;20196;-39
2021/12/25 13:43:22;;;;;;;3.00;1.50;;;-1.10;99.90;;;;;;5055375;28;20215;-38
2021/12/25 13:45:58;;;;;;;8.87;1.93;;;-1.20;99.90;;;;;;5073630;28;20220;-39
2021/12/25 13:48:24;;;;;;;2.57;1.23;;;-1.20;99.90;;;;;;5072671;28;20206;-38
2021/12/25 13:50:52;;;;;;;3.93;1.40;;;-1.20;99.90;;;;;;5074546;28;20234;-39
2021/12/25 13:53:19;;;;;;;3.57;1.47;;;-1.30;99.90;;;;;;5056885;28;20345;-39
2021/12/25 13:55:48;;;;;;;2.07;1.43;;;-1.30;99.90;;;;;;5062051;28;20219;-38
2021/12/25 13:58:17;;;;;;;3.93;1.50;;;-1.30;99.90;;;;;;5046102;28;20243;-39